sensor_id;sensor_type;location;lat;lon;timestamp;pressure;altitude;pressure_sealevel;temperature;humidity
36520;BME280;40269;46.742;9.778;2023-02-28T00:01:45;85300.65;;;-3.20;39.35
36520;BME280;40269;46.742;9.778;2023-02-28T00:04:12;85303.19;;;-5.81;43.00
36520;BME280;40269;46.742;9.778;2023-02-28T00:06:39;85298.95;;;-4.09;40.48
36520;BME280;40269;46.742;9.778;2023-02-28T00:09:06;85298.26;;;-5.11;41.42
36520;BME280;40269;46.742;9.778;2023-02-28T00:11:32;85297.28;;;-4.83;41.40
36520;BME280;40269;46.742;9.778;2023-02-28T00:13:59;85294.17;;;-4.22;39.89
36520;BME280;40269;46.742;9.778;2023-02-28T00:16:26;85290.73;;;-2.69;37.79
36520;BME280;40269;46.742;9.778;2023-02-28T00:18:53;85292.19;;;-2.01;36.69
36520;BME280;40269;46.742;9.778;2023-02-28T00:21:21;85288.00;;;-2.90;37.53
36520;BME280;40269;46.742;9.778;2023-02-28T00:23:48;85295.54;;;-5.58;41.41
36520;BME280;40269;46.742;9.778;2023-02-28T00:26:15;85297.63;;;-6.89;44.14
36520;BME280;40269;46.742;9.778;2023-02-28T00:28:43;85300.61;;;-4.35;39.70
36520;BME280;40269;46.742;9.778;2023-02-28T00:31:10;85299.18;;;-4.03;38.89
36520;BME280;40269;46.742;9.778;2023-02-28T00:33:36;85294.16;;;-2.86;37.23
36520;BME280;40269;46.742;9.778;2023-02-28T00:36:06;85295.19;;;-2.88;36.76
36520;BME280;40269;46.742;9.778;2023-02-28T00:38:33;85301.35;;;-6.20;42.21
36520;BME280;40269;46.742;9.778;2023-02-28T00:41:00;85302.15;;;-6.85;43.72
36520;BME280;40269;46.742;9.778;2023-02-28T00:43:27;85301.57;;;-7.43;44.08
36520;BME280;40269;46.742;9.778;2023-02-28T00:45:54;85300.85;;;-4.65;39.37
36520;BME280;40269;46.742;9.778;2023-02-28T00:48:21;85299.99;;;-3.18;37.05
36520;BME280;40269;46.742;9.778;2023-02-28T00:50:48;85299.12;;;-3.22;36.69
36520;BME280;40269;46.742;9.778;2023-02-28T00:53:16;85297.91;;;-2.98;36.18
36520;BME280;40269;46.742;9.778;2023-02-28T00:55:43;85305.19;;;-3.32;36.47
36520;BME280;40269;46.742;9.778;2023-02-28T00:58:10;85303.04;;;-3.10;35.67
36520;BME280;40269;46.742;9.778;2023-02-28T01:00:36;85305.05;;;-2.89;35.52
36520;BME280;40269;46.742;9.778;2023-02-28T01:03:03;85305.76;;;-2.87;35.31
36520;BME280;40269;46.742;9.778;2023-02-28T01:05:30;85314.69;;;-5.52;38.93
36520;BME280;40269;46.742;9.778;2023-02-28T01:07:57;85315.66;;;-7.73;44.14
36520;BME280;40269;46.742;9.778;2023-02-28T01:10:25;85310.98;;;-5.01;39.79
36520;BME280;40269;46.742;9.778;2023-02-28T01:12:52;85309.96;;;-4.31;38.85
36520;BME280;40269;46.742;9.778;2023-02-28T01:15:19;85311.38;;;-4.71;38.74
36520;BME280;40269;46.742;9.778;2023-02-28T01:17:46;85308.86;;;-3.04;36.89
36520;BME280;40269;46.742;9.778;2023-02-28T01:20:13;85307.11;;;-4.10;37.58
36520;BME280;40269;46.742;9.778;2023-02-28T01:22:39;85306.89;;;-4.36;37.62
36520;BME280;40269;46.742;9.778;2023-02-28T01:25:07;85306.53;;;-6.58;41.44
36520;BME280;40269;46.742;9.778;2023-02-28T01:27:34;85308.73;;;-4.10;38.28
36520;BME280;40269;46.742;9.778;2023-02-28T01:30:02;85313.07;;;-5.97;41.71
36520;BME280;40269;46.742;9.778;2023-02-28T01:32:29;85315.28;;;-4.22;38.33
36520;BME280;40269;46.742;9.778;2023-02-28T01:34:55;85316.78;;;-4.90;40.18
36520;BME280;40269;46.742;9.778;2023-02-28T01:37:22;85316.38;;;-5.66;40.36
36520;BME280;40269;46.742;9.778;2023-02-28T01:39:49;85314.59;;;-6.41;41.41
36520;BME280;40269;46.742;9.778;2023-02-28T01:42:16;85315.52;;;-5.61;41.10
36520;BME280;40269;46.742;9.778;2023-02-28T01:45:03;85315.55;;;-4.52;38.98
36520;BME280;40269;46.742;9.778;2023-02-28T01:47:32;85314.87;;;-3.85;37.62
36520;BME280;40269;46.742;9.778;2023-02-28T01:50:05;85320.43;;;-2.85;36.87
36520;BME280;40269;46.742;9.778;2023-02-28T01:52:34;85318.06;;;-4.10;38.19
36520;BME280;40269;46.742;9.778;2023-02-28T01:55:03;85312.34;;;-4.30;39.15
36520;BME280;40269;46.742;9.778;2023-02-28T01:57:34;85310.02;;;-5.73;40.96
36520;BME280;40269;46.742;9.778;2023-02-28T02:00:06;85311.19;;;-4.75;39.48
36520;BME280;40269;46.742;9.778;2023-02-28T02:02:35;85309.24;;;-6.98;43.12
36520;BME280;40269;46.742;9.778;2023-02-28T02:05:06;85305.37;;;-5.57;40.05
36520;BME280;40269;46.742;9.778;2023-02-28T02:07:37;85305.63;;;-5.02;39.84
36520;BME280;40269;46.742;9.778;2023-02-28T02:10:13;85300.02;;;-4.43;39.00
36520;BME280;40269;46.742;9.778;2023-02-28T02:12:52;85297.30;;;-7.74;44.12
36520;BME280;40269;46.742;9.778;2023-02-28T02:15:26;85293.97;;;-5.52;40.60
36520;BME280;40269;46.742;9.778;2023-02-28T02:17:57;85291.60;;;-4.28;38.57
36520;BME280;40269;46.742;9.778;2023-02-28T02:20:44;85289.99;;;-4.41;37.96
36520;BME280;40269;46.742;9.778;2023-02-28T02:23:42;85287.22;;;-6.62;40.58
36520;BME280;40269;46.742;9.778;2023-02-28T02:26:34;85289.10;;;-7.56;44.75
36520;BME280;40269;46.742;9.778;2023-02-28T02:29:30;85294.60;;;-4.91;38.91
36520;BME280;40269;46.742;9.778;2023-02-28T02:32:48;85295.05;;;-5.56;40.05
36520;BME280;40269;46.742;9.778;2023-02-28T02:35:24;85296.09;;;-5.60;39.98
36520;BME280;40269;46.742;9.778;2023-02-28T02:37:58;85296.77;;;-6.49;41.27
36520;BME280;40269;46.742;9.778;2023-02-28T02:40:35;85298.59;;;-4.66;38.96
36520;BME280;40269;46.742;9.778;2023-02-28T02:43:08;85298.10;;;-8.97;45.81
36520;BME280;40269;46.742;9.778;2023-02-28T02:45:43;85302.12;;;-10.17;48.38
36520;BME280;40269;46.742;9.778;2023-02-28T02:48:15;85301.14;;;-9.86;50.15
36520;BME280;40269;46.742;9.778;2023-02-28T02:50:45;85295.52;;;-7.35;44.12
36520;BME280;40269;46.742;9.778;2023-02-28T02:53:15;85289.57;;;-5.54;40.55
36520;BME280;40269;46.742;9.778;2023-02-28T02:55:46;85289.14;;;-4.83;38.79
36520;BME280;40269;46.742;9.778;2023-02-28T02:58:16;85283.29;;;-4.56;38.18
36520;BME280;40269;46.742;9.778;2023-02-28T03:00:50;85285.70;;;-7.40;42.06
36520;BME280;40269;46.742;9.778;2023-02-28T03:03:20;85287.03;;;-7.13;43.23
36520;BME280;40269;46.742;9.778;2023-02-28T03:05:49;85286.81;;;-8.16;45.25
36520;BME280;40269;46.742;9.778;2023-02-28T03:08:17;85289.63;;;-7.92;45.07
36520;BME280;40269;46.742;9.778;2023-02-28T03:10:46;85292.21;;;-7.50;44.25
36520;BME280;40269;46.742;9.778;2023-02-28T03:14:32;85293.16;;;-6.12;41.41
36520;BME280;40269;46.742;9.778;2023-02-28T03:17:19;85300.72;;;-10.54;49.20
36520;BME280;40269;46.742;9.778;2023-02-28T03:19:55;85294.13;;;-7.68;45.32
36520;BME280;40269;46.742;9.778;2023-02-28T03:22:39;85296.97;;;-6.46;42.36
36520;BME280;40269;46.742;9.778;2023-02-28T03:25:18;85295.33;;;-8.11;44.15
36520;BME280;40269;46.742;9.778;2023-02-28T03:27:55;85296.62;;;-6.86;42.23
36520;BME280;40269;46.742;9.778;2023-02-28T03:30:32;85296.77;;;-5.63;39.19
36520;BME280;40269;46.742;9.778;2023-02-28T03:33:05;85295.49;;;-7.52;43.16
36520;BME280;40269;46.742;9.778;2023-02-28T03:35:36;85300.40;;;-7.56;43.78
36520;BME280;40269;46.742;9.778;2023-02-28T03:38:08;85301.56;;;-6.94;42.25
36520;BME280;40269;46.742;9.778;2023-02-28T03:40:39;85306.67;;;-6.45;42.20
36520;BME280;40269;46.742;9.778;2023-02-28T03:43:12;85302.24;;;-5.53;39.87
36520;BME280;40269;46.742;9.778;2023-02-28T03:45:41;85304.72;;;-4.94;38.39
36520;BME280;40269;46.742;9.778;2023-02-28T03:48:13;85307.90;;;-6.93;42.23
36520;BME280;40269;46.742;9.778;2023-02-28T03:50:44;85311.69;;;-7.35;43.02
36520;BME280;40269;46.742;9.778;2023-02-28T03:53:15;85318.99;;;-9.66;47.25
36520;BME280;40269;46.742;9.778;2023-02-28T03:55:47;85323.80;;;-8.56;45.53
36520;BME280;40269;46.742;9.778;2023-02-28T03:58:21;85322.50;;;-6.49;42.00
36520;BME280;40269;46.742;9.778;2023-02-28T04:00:55;85322.82;;;-6.56;41.62
36520;BME280;40269;46.742;9.778;2023-02-28T04:03:23;85326.71;;;-9.02;45.81
36520;BME280;40269;46.742;9.778;2023-02-28T04:05:52;85324.37;;;-8.67;45.24
36520;BME280;40269;46.742;9.778;2023-02-28T04:08:21;85321.36;;;-7.96;43.83
36520;BME280;40269;46.742;9.778;2023-02-28T04:10:51;85328.80;;;-7.45;43.86
36520;BME280;40269;46.742;9.778;2023-02-28T04:13:21;85327.45;;;-6.61;41.62
36520;BME280;40269;46.742;9.778;2023-02-28T04:15:48;85331.67;;;-5.35;39.39
36520;BME280;40269;46.742;9.778;2023-02-28T04:18:15;85335.47;;;-6.55;39.92
36520;BME280;40269;46.742;9.778;2023-02-28T04:20:42;85347.86;;;-10.15;48.71
36520;BME280;40269;46.742;9.778;2023-02-28T04:23:09;85341.25;;;-7.62;43.72
36520;BME280;40269;46.742;9.778;2023-02-28T04:25:36;85349.21;;;-9.53;47.98
36520;BME280;40269;46.742;9.778;2023-02-28T04:28:04;85345.32;;;-7.86;44.40
36520;BME280;40269;46.742;9.778;2023-02-28T04:30:30;85347.23;;;-7.97;45.25
36520;BME280;40269;46.742;9.778;2023-02-28T04:32:57;85353.39;;;-10.34;49.34
36520;BME280;40269;46.742;9.778;2023-02-28T04:35:24;85345.11;;;-7.91;45.51
36520;BME280;40269;46.742;9.778;2023-02-28T04:37:51;85341.31;;;-6.10;41.60
36520;BME280;40269;46.742;9.778;2023-02-28T04:40:19;85342.34;;;-7.49;43.31
36520;BME280;40269;46.742;9.778;2023-02-28T04:42:45;85339.83;;;-6.04;40.92
36520;BME280;40269;46.742;9.778;2023-02-28T04:45:13;85341.23;;;-6.15;40.87
36520;BME280;40269;46.742;9.778;2023-02-28T04:47:40;85341.21;;;-5.49;39.96
36520;BME280;40269;46.742;9.778;2023-02-28T04:50:08;85344.88;;;-7.32;43.39
36520;BME280;40269;46.742;9.778;2023-02-28T04:52:35;85352.20;;;-10.31;49.58
36520;BME280;40269;46.742;9.778;2023-02-28T04:55:02;85346.13;;;-9.87;50.50
36520;BME280;40269;46.742;9.778;2023-02-28T04:57:29;85349.04;;;-8.20;46.19
36520;BME280;40269;46.742;9.778;2023-02-28T04:59:56;85341.44;;;-7.94;45.00
36520;BME280;40269;46.742;9.778;2023-02-28T05:02:23;85343.58;;;-9.43;48.72
36520;BME280;40269;46.742;9.778;2023-02-28T05:04:50;85348.30;;;-10.63;51.77
36520;BME280;40269;46.742;9.778;2023-02-28T05:07:17;85351.70;;;-7.90;45.78
36520;BME280;40269;46.742;9.778;2023-02-28T05:09:44;85353.89;;;-9.53;48.67
36520;BME280;40269;46.742;9.778;2023-02-28T05:12:11;85351.39;;;-9.36;49.47
36520;BME280;40269;46.742;9.778;2023-02-28T05:14:38;85352.94;;;-7.12;44.36
36520;BME280;40269;46.742;9.778;2023-02-28T05:17:05;85348.90;;;-6.72;42.89
36520;BME280;40269;46.742;9.778;2023-02-28T05:19:32;85351.25;;;-5.81;41.39
36520;BME280;40269;46.742;9.778;2023-02-28T05:21:59;85351.31;;;-7.30;43.49
36520;BME280;40269;46.742;9.778;2023-02-28T05:24:26;85360.42;;;-8.86;45.04
36520;BME280;40269;46.742;9.778;2023-02-28T05:26:54;85359.50;;;-8.92;46.21
36520;BME280;40269;46.742;9.778;2023-02-28T05:29:22;85353.60;;;-7.61;44.39
36520;BME280;40269;46.742;9.778;2023-02-28T05:31:49;85356.83;;;-9.29;47.22
36520;BME280;40269;46.742;9.778;2023-02-28T05:34:16;85353.80;;;-7.54;44.68
36520;BME280;40269;46.742;9.778;2023-02-28T05:36:43;85356.55;;;-8.23;45.32
36520;BME280;40269;46.742;9.778;2023-02-28T05:39:11;85358.26;;;-7.40;44.12
36520;BME280;40269;46.742;9.778;2023-02-28T05:41:39;85357.31;;;-5.81;41.16
36520;BME280;40269;46.742;9.778;2023-02-28T05:44:07;85361.70;;;-6.65;41.53
36520;BME280;40269;46.742;9.778;2023-02-28T05:46:34;85365.15;;;-9.97;48.47
36520;BME280;40269;46.742;9.778;2023-02-28T05:49:01;85366.06;;;-8.65;47.50
36520;BME280;40269;46.742;9.778;2023-02-28T05:51:28;85366.74;;;-11.98;54.11
36520;BME280;40269;46.742;9.778;2023-02-28T05:53:59;85371.17;;;-12.72;57.83
36520;BME280;40269;46.742;9.778;2023-02-28T05:56:26;85372.54;;;-10.20;51.09
36520;BME280;40269;46.742;9.778;2023-02-28T05:58:53;85369.30;;;-7.61;45.41
36520;BME280;40269;46.742;9.778;2023-02-28T06:01:24;85367.28;;;-7.59;44.49
36520;BME280;40269;46.742;9.778;2023-02-28T06:03:51;85369.56;;;-7.48;45.05
36520;BME280;40269;46.742;9.778;2023-02-28T06:06:19;85371.54;;;-10.08;48.83
36520;BME280;40269;46.742;9.778;2023-02-28T06:08:46;85368.74;;;-9.19;47.63
36520;BME280;40269;46.742;9.778;2023-02-28T06:11:13;85371.98;;;-9.30;47.39
36520;BME280;40269;46.742;9.778;2023-02-28T06:13:40;85372.90;;;-8.97;47.61
36520;BME280;40269;46.742;9.778;2023-02-28T06:16:09;85375.74;;;-8.64;46.63
36520;BME280;40269;46.742;9.778;2023-02-28T06:18:37;85374.78;;;-6.17;42.57
36520;BME280;40269;46.742;9.778;2023-02-28T06:21:05;85383.39;;;-10.50;51.82
36520;BME280;40269;46.742;9.778;2023-02-28T06:23:32;85383.64;;;-8.26;47.39
36520;BME280;40269;46.742;9.778;2023-02-28T06:25:58;85386.07;;;-8.39;46.35
36520;BME280;40269;46.742;9.778;2023-02-28T06:28:26;85385.86;;;-6.32;42.18
36520;BME280;40269;46.742;9.778;2023-02-28T06:30:53;85388.20;;;-6.84;42.40
36520;BME280;40269;46.742;9.778;2023-02-28T06:33:20;85389.31;;;-5.80;40.69
36520;BME280;40269;46.742;9.778;2023-02-28T06:35:50;85389.72;;;-5.87;40.86
36520;BME280;40269;46.742;9.778;2023-02-28T06:38:17;85393.35;;;-5.79;41.32
36520;BME280;40269;46.742;9.778;2023-02-28T06:40:44;85397.82;;;-7.97;43.15
36520;BME280;40269;46.742;9.778;2023-02-28T06:43:11;85397.96;;;-6.70;42.61
36520;BME280;40269;46.742;9.778;2023-02-28T06:45:42;85399.98;;;-8.14;43.75
36520;BME280;40269;46.742;9.778;2023-02-28T06:48:09;85400.50;;;-10.00;49.91
36520;BME280;40269;46.742;9.778;2023-02-28T06:50:36;85405.02;;;-8.90;47.92
36520;BME280;40269;46.742;9.778;2023-02-28T06:53:03;85400.51;;;-6.54;42.71
36520;BME280;40269;46.742;9.778;2023-02-28T06:55:31;85398.99;;;-5.36;40.77
36520;BME280;40269;46.742;9.778;2023-02-28T06:57:57;85402.66;;;-5.10;39.89
36520;BME280;40269;46.742;9.778;2023-02-28T07:00:25;85404.77;;;-5.22;39.28
36520;BME280;40269;46.742;9.778;2023-02-28T07:02:52;85408.10;;;-6.47;41.89
36520;BME280;40269;46.742;9.778;2023-02-28T07:05:19;85411.08;;;-6.22;41.63
36520;BME280;40269;46.742;9.778;2023-02-28T07:07:46;85423.94;;;-8.99;46.48
36520;BME280;40269;46.742;9.778;2023-02-28T07:10:13;85422.75;;;-8.85;47.04
36520;BME280;40269;46.742;9.778;2023-02-28T07:12:40;85416.04;;;-6.50;42.70
36520;BME280;40269;46.742;9.778;2023-02-28T07:15:08;85420.89;;;-6.26;41.91
36520;BME280;40269;46.742;9.778;2023-02-28T07:17:35;85421.52;;;-6.48;42.36
36520;BME280;40269;46.742;9.778;2023-02-28T07:20:03;85419.41;;;-6.04;41.66
36520;BME280;40269;46.742;9.778;2023-02-28T07:22:30;85430.40;;;-8.02;44.66
36520;BME280;40269;46.742;9.778;2023-02-28T07:24:57;85434.61;;;-8.34;45.51
36520;BME280;40269;46.742;9.778;2023-02-28T07:27:24;85436.38;;;-8.98;47.91
36520;BME280;40269;46.742;9.778;2023-02-28T07:29:52;85441.54;;;-9.46;48.96
36520;BME280;40269;46.742;9.778;2023-02-28T07:32:19;85443.34;;;-9.02;48.39
36520;BME280;40269;46.742;9.778;2023-02-28T07:34:46;85449.29;;;-9.42;48.94
36520;BME280;40269;46.742;9.778;2023-02-28T07:37:13;85444.69;;;-9.83;50.34
36520;BME280;40269;46.742;9.778;2023-02-28T07:39:40;85444.98;;;-7.51;45.62
36520;BME280;40269;46.742;9.778;2023-02-28T07:42:08;85438.31;;;-5.57;41.32
36520;BME280;40269;46.742;9.778;2023-02-28T07:44:35;85440.41;;;-8.24;45.90
36520;BME280;40269;46.742;9.778;2023-02-28T07:47:01;85434.35;;;-5.47;40.73
36520;BME280;40269;46.742;9.778;2023-02-28T07:49:29;85432.98;;;-4.60;39.22
36520;BME280;40269;46.742;9.778;2023-02-28T07:51:55;85430.92;;;-6.43;41.29
36520;BME280;40269;46.742;9.778;2023-02-28T07:54:22;85430.32;;;-5.75;40.20
36520;BME280;40269;46.742;9.778;2023-02-28T07:56:49;85426.81;;;-4.76;39.19
36520;BME280;40269;46.742;9.778;2023-02-28T07:59:17;85429.16;;;-3.82;37.64
36520;BME280;40269;46.742;9.778;2023-02-28T08:01:43;85427.39;;;-4.23;38.18
36520;BME280;40269;46.742;9.778;2023-02-28T08:04:10;85430.55;;;-6.02;40.40
36520;BME280;40269;46.742;9.778;2023-02-28T08:06:37;85427.88;;;-4.39;38.85
36520;BME280;40269;46.742;9.778;2023-02-28T08:09:04;85432.40;;;-3.68;37.40
36520;BME280;40269;46.742;9.778;2023-02-28T08:11:31;85435.49;;;-3.57;37.60
36520;BME280;40269;46.742;9.778;2023-02-28T08:13:58;85429.84;;;-3.10;36.88
36520;BME280;40269;46.742;9.778;2023-02-28T08:16:25;85428.04;;;-4.86;38.80
36520;BME280;40269;46.742;9.778;2023-02-28T08:18:52;85432.36;;;-5.56;40.95
36520;BME280;40269;46.742;9.778;2023-02-28T08:21:20;85432.01;;;-6.33;42.09
36520;BME280;40269;46.742;9.778;2023-02-28T08:23:47;85428.71;;;-4.97;40.42
36520;BME280;40269;46.742;9.778;2023-02-28T08:26:15;85429.16;;;-6.67;43.59
36520;BME280;40269;46.742;9.778;2023-02-28T08:28:42;85427.46;;;-5.28;41.46
36520;BME280;40269;46.742;9.778;2023-02-28T08:31:10;85421.63;;;-4.60;40.13
36520;BME280;40269;46.742;9.778;2023-02-28T08:33:37;85422.44;;;-4.05;38.99
36520;BME280;40269;46.742;9.778;2023-02-28T08:36:05;85418.73;;;-5.02;41.38
36520;BME280;40269;46.742;9.778;2023-02-28T08:38:33;85420.51;;;-5.21;42.19
36520;BME280;40269;46.742;9.778;2023-02-28T08:41:01;85423.98;;;-5.58;42.61
36520;BME280;40269;46.742;9.778;2023-02-28T08:43:29;85422.85;;;-6.78;46.91
36520;BME280;40269;46.742;9.778;2023-02-28T08:45:56;85428.06;;;-7.20;48.94
36520;BME280;40269;46.742;9.778;2023-02-28T08:48:24;85428.02;;;-4.69;44.76
36520;BME280;40269;46.742;9.778;2023-02-28T08:51:00;85427.51;;;-5.67;48.27
36520;BME280;40269;46.742;9.778;2023-02-28T08:53:28;85425.48;;;-5.26;46.67
36520;BME280;40269;46.742;9.778;2023-02-28T08:55:57;85427.20;;;-5.80;50.67
36520;BME280;40269;46.742;9.778;2023-02-28T08:58:24;85429.09;;;-6.89;52.29
36520;BME280;40269;46.742;9.778;2023-02-28T09:00:51;85428.93;;;-6.53;51.98
36520;BME280;40269;46.742;9.778;2023-02-28T09:03:19;85429.79;;;-6.09;51.92
36520;BME280;40269;46.742;9.778;2023-02-28T09:06:02;85431.00;;;-5.11;49.47
36520;BME280;40269;46.742;9.778;2023-02-28T09:08:30;85430.72;;;-3.64;44.64
36520;BME280;40269;46.742;9.778;2023-02-28T09:10:57;85431.94;;;-2.31;42.45
36520;BME280;40269;46.742;9.778;2023-02-28T09:13:25;85432.65;;;-2.39;41.49
36520;BME280;40269;46.742;9.778;2023-02-28T09:15:54;85429.27;;;-1.67;41.33
36520;BME280;40269;46.742;9.778;2023-02-28T09:18:23;85429.54;;;-2.15;42.59
36520;BME280;40269;46.742;9.778;2023-02-28T09:20:51;85439.76;;;-3.98;44.88
36520;BME280;40269;46.742;9.778;2023-02-28T09:23:19;85442.29;;;-2.96;45.54
36520;BME280;40269;46.742;9.778;2023-02-28T09:25:47;85439.88;;;-0.63;38.71
36520;BME280;40269;46.742;9.778;2023-02-28T09:28:15;85439.89;;;-0.81;39.12
36520;BME280;40269;46.742;9.778;2023-02-28T09:30:44;85436.92;;;-0.49;38.85
36520;BME280;40269;46.742;9.778;2023-02-28T09:33:11;85436.75;;;-0.48;39.22
36520;BME280;40269;46.742;9.778;2023-02-28T09:35:38;85436.23;;;-0.12;39.19
36520;BME280;40269;46.742;9.778;2023-02-28T09:38:05;85439.61;;;0.78;37.27
36520;BME280;40269;46.742;9.778;2023-02-28T09:40:36;85439.91;;;1.00;35.52
36520;BME280;40269;46.742;9.778;2023-02-28T09:43:04;85435.80;;;2.01;33.70
36520;BME280;40269;46.742;9.778;2023-02-28T09:45:35;85431.75;;;4.17;32.36
36520;BME280;40269;46.742;9.778;2023-02-28T09:48:06;85435.66;;;2.25;35.35
36520;BME280;40269;46.742;9.778;2023-02-28T09:50:40;85434.67;;;0.75;35.30
36520;BME280;40269;46.742;9.778;2023-02-28T09:53:18;85435.44;;;2.36;35.23
36520;BME280;40269;46.742;9.778;2023-02-28T09:55:49;85436.13;;;2.00;32.73
36520;BME280;40269;46.742;9.778;2023-02-28T09:58:26;85430.57;;;3.03;30.39
36520;BME280;40269;46.742;9.778;2023-02-28T10:01:01;85434.77;;;1.94;31.72
36520;BME280;40269;46.742;9.778;2023-02-28T10:03:32;85440.41;;;1.53;31.09
36520;BME280;40269;46.742;9.778;2023-02-28T10:06:08;85434.57;;;1.06;30.62
36520;BME280;40269;46.742;9.778;2023-02-28T10:08:45;85436.94;;;2.14;28.91
36520;BME280;40269;46.742;9.778;2023-02-28T10:11:16;85428.16;;;3.48;27.26
36520;BME280;40269;46.742;9.778;2023-02-28T10:13:51;85430.13;;;1.87;30.21
36520;BME280;40269;46.742;9.778;2023-02-28T10:16:25;85435.90;;;0.93;30.79
36520;BME280;40269;46.742;9.778;2023-02-28T10:18:59;85433.72;;;1.94;30.82
36520;BME280;40269;46.742;9.778;2023-02-28T10:21:31;85433.94;;;2.63;31.83
36520;BME280;40269;46.742;9.778;2023-02-28T10:24:07;85433.08;;;1.54;29.32
36520;BME280;40269;46.742;9.778;2023-02-28T10:26:39;85436.90;;;1.17;29.82
36520;BME280;40269;46.742;9.778;2023-02-28T10:29:11;85435.04;;;1.77;29.90
36520;BME280;40269;46.742;9.778;2023-02-28T10:31:38;85432.78;;;0.65;29.69
36520;BME280;40269;46.742;9.778;2023-02-28T10:34:07;85432.61;;;1.14;30.14
36520;BME280;40269;46.742;9.778;2023-02-28T10:36:34;85435.98;;;1.07;29.32
36520;BME280;40269;46.742;9.778;2023-02-28T10:39:36;85436.70;;;2.16;28.77
36520;BME280;40269;46.742;9.778;2023-02-28T10:42:03;85438.21;;;2.47;27.47
36520;BME280;40269;46.742;9.778;2023-02-28T10:44:30;85433.88;;;3.34;27.15
36520;BME280;40269;46.742;9.778;2023-02-28T10:46:58;85439.70;;;2.58;27.30
36520;BME280;40269;46.742;9.778;2023-02-28T10:49:27;85434.19;;;3.99;28.21
36520;BME280;40269;46.742;9.778;2023-02-28T10:51:55;85432.17;;;3.49;27.00
36520;BME280;40269;46.742;9.778;2023-02-28T10:54:30;85432.88;;;4.67;27.06
36520;BME280;40269;46.742;9.778;2023-02-28T10:57:07;85436.83;;;2.79;26.40
36520;BME280;40269;46.742;9.778;2023-02-28T10:59:35;85432.35;;;3.06;26.53
36520;BME280;40269;46.742;9.778;2023-02-28T11:02:07;85432.30;;;4.85;26.49
36520;BME280;40269;46.742;9.778;2023-02-28T11:04:55;85426.50;;;4.86;27.78
36520;BME280;40269;46.742;9.778;2023-02-28T11:07:23;85424.97;;;6.64;23.43
36520;BME280;40269;46.742;9.778;2023-02-28T11:09:54;85422.71;;;4.07;24.74
36520;BME280;40269;46.742;9.778;2023-02-28T11:12:23;85424.20;;;5.78;27.36
36520;BME280;40269;46.742;9.778;2023-02-28T11:14:56;85421.57;;;5.81;24.78
36520;BME280;40269;46.742;9.778;2023-02-28T11:17:25;85416.55;;;5.41;22.89
36520;BME280;40269;46.742;9.778;2023-02-28T11:20:48;85416.27;;;7.25;22.91
36520;BME280;40269;46.742;9.778;2023-02-28T11:23:45;85414.45;;;7.78;22.83
36520;BME280;40269;46.742;9.778;2023-02-28T11:26:34;85409.36;;;7.84;22.48
36520;BME280;40269;46.742;9.778;2023-02-28T11:29:20;85407.16;;;8.64;19.76
36520;BME280;40269;46.742;9.778;2023-02-28T11:34:23;85411.37;;;6.64;22.58
36520;BME280;40269;46.742;9.778;2023-02-28T11:36:51;85413.96;;;6.92;22.55
36520;BME280;40269;46.742;9.778;2023-02-28T11:39:20;85413.33;;;6.48;21.71
36520;BME280;40269;46.742;9.778;2023-02-28T11:42:00;85411.61;;;6.46;21.58
36520;BME280;40269;46.742;9.778;2023-02-28T11:44:45;85409.58;;;7.06;22.37
36520;BME280;40269;46.742;9.778;2023-02-28T11:47:18;85400.12;;;9.19;20.80
36520;BME280;40269;46.742;9.778;2023-02-28T11:49:51;85399.38;;;8.80;21.13
36520;BME280;40269;46.742;9.778;2023-02-28T11:52:31;85399.17;;;8.47;19.93
36520;BME280;40269;46.742;9.778;2023-02-28T11:55:14;85398.50;;;7.19;21.87
36520;BME280;40269;46.742;9.778;2023-02-28T11:57:56;85393.33;;;7.70;19.76
36520;BME280;40269;46.742;9.778;2023-02-28T12:00:40;85396.30;;;7.22;21.01
36520;BME280;40269;46.742;9.778;2023-02-28T12:03:21;85393.22;;;6.48;21.33
36520;BME280;40269;46.742;9.778;2023-02-28T12:06:01;85389.34;;;7.00;20.64
36520;BME280;40269;46.742;9.778;2023-02-28T12:08:44;85385.27;;;7.22;22.45
36520;BME280;40269;46.742;9.778;2023-02-28T12:11:22;85378.07;;;6.49;22.14
36520;BME280;40269;46.742;9.778;2023-02-28T12:13:59;85382.19;;;6.50;22.72
36520;BME280;40269;46.742;9.778;2023-02-28T12:16:44;85379.40;;;8.89;20.94
36520;BME280;40269;46.742;9.778;2023-02-28T12:19:20;85382.68;;;5.86;21.69
36520;BME280;40269;46.742;9.778;2023-02-28T12:22:00;85383.98;;;7.60;20.55
36520;BME280;40269;46.742;9.778;2023-02-28T12:24:41;85381.61;;;10.15;19.13
36520;BME280;40269;46.742;9.778;2023-02-28T12:27:15;85380.96;;;7.83;19.47
36520;BME280;40269;46.742;9.778;2023-02-28T12:29:48;85375.34;;;8.13;20.28
36520;BME280;40269;46.742;9.778;2023-02-28T12:32:21;85376.82;;;7.49;20.92
36520;BME280;40269;46.742;9.778;2023-02-28T12:34:53;85372.74;;;7.16;20.52
36520;BME280;40269;46.742;9.778;2023-02-28T12:37:29;85372.28;;;7.04;20.52
36520;BME280;40269;46.742;9.778;2023-02-28T12:40:01;85364.43;;;9.47;19.45
36520;BME280;40269;46.742;9.778;2023-02-28T12:42:30;85365.87;;;11.00;17.32
36520;BME280;40269;46.742;9.778;2023-02-28T12:45:00;85363.25;;;8.11;20.68
36520;BME280;40269;46.742;9.778;2023-02-28T12:47:28;85360.06;;;9.16;18.19
36520;BME280;40269;46.742;9.778;2023-02-28T12:49:59;85363.07;;;11.11;17.44
36520;BME280;40269;46.742;9.778;2023-02-28T12:52:34;85358.45;;;12.37;17.53
36520;BME280;40269;46.742;9.778;2023-02-28T12:55:07;85357.87;;;12.37;15.71
36520;BME280;40269;46.742;9.778;2023-02-28T12:57:42;85354.96;;;8.27;20.03
36520;BME280;40269;46.742;9.778;2023-02-28T13:00:18;85352.33;;;11.93;15.90
36520;BME280;40269;46.742;9.778;2023-02-28T13:03:33;85348.09;;;13.45;16.44
36520;BME280;40269;46.742;9.778;2023-02-28T13:06:53;85348.64;;;13.72;15.02
36520;BME280;40269;46.742;9.778;2023-02-28T13:09:23;85347.49;;;15.62;16.53
36520;BME280;40269;46.742;9.778;2023-02-28T13:11:52;85349.81;;;15.72;15.41
36520;BME280;40269;46.742;9.778;2023-02-28T13:14:26;85347.53;;;15.50;14.80
36520;BME280;40269;46.742;9.778;2023-02-28T13:16:57;85344.39;;;19.04;15.00
36520;BME280;40269;46.742;9.778;2023-02-28T13:19:26;85345.94;;;11.06;17.16
36520;BME280;40269;46.742;9.778;2023-02-28T13:21:54;85345.68;;;9.83;21.16
36520;BME280;40269;46.742;9.778;2023-02-28T13:24:40;85344.28;;;11.55;19.38
36520;BME280;40269;46.742;9.778;2023-02-28T13:27:22;85343.30;;;14.41;19.66